sensor_id;sensor_type;location;lat;lon;timestamp;pressure;altitude;pressure_sealevel;temperature;humidity
68179;BME280;69812;42.632;23.440;2023-06-10T00:00:44;94717.31;;;14.55;96.86
68179;BME280;69812;42.632;23.440;2023-06-10T00:03:10;94710.00;;;14.75;95.84
68179;BME280;69812;42.632;23.440;2023-06-10T00:05:36;94710.00;;;14.75;95.05
68179;BME280;69812;42.632;23.440;2023-06-10T00:08:04;94705.22;;;14.55;95.89
68179;BME280;69812;42.632;23.440;2023-06-10T00:10:35;94707.84;;;14.31;96.48
68179;BME280;69812;42.632;23.440;2023-06-10T00:13:02;94707.81;;;14.47;97.43
68179;BME280;69812;42.632;23.440;2023-06-10T00:15:29;94710.28;;;14.32;97.36
68179;BME280;69812;42.632;23.440;2023-06-10T00:17:54;94712.84;;;14.41;97.92
68179;BME280;69812;42.632;23.440;2023-06-10T00:20:20;94719.06;;;14.54;98.03
68179;BME280;69812;42.632;23.440;2023-06-10T00:22:49;94720.88;;;14.46;98.09
68179;BME280;69812;42.632;23.440;2023-06-10T00:25:14;94712.38;;;14.29;98.13
68179;BME280;69812;42.632;23.440;2023-06-10T00:27:40;94712.06;;;14.24;98.14
68179;BME280;69812;42.632;23.440;2023-06-10T00:30:06;94725.94;;;14.31;98.07
68179;BME280;69812;42.632;23.440;2023-06-10T00:32:33;94719.16;;;14.30;98.19
68179;BME280;69812;42.632;23.440;2023-06-10T00:34:58;94725.13;;;14.22;98.36
68179;BME280;69812;42.632;23.440;2023-06-10T00:37:23;94723.19;;;14.24;98.63
68179;BME280;69812;42.632;23.440;2023-06-10T00:39:49;94731.72;;;14.33;99.37
68179;BME280;69812;42.632;23.440;2023-06-10T00:42:14;94728.78;;;14.44;99.54
68179;BME280;69812;42.632;23.440;2023-06-10T00:44:40;94724.44;;;14.45;99.44
68179;BME280;69812;42.632;23.440;2023-06-10T00:47:06;94731.63;;;14.66;99.56
68179;BME280;69812;42.632;23.440;2023-06-10T00:49:33;94731.44;;;14.75;98.39
68179;BME280;69812;42.632;23.440;2023-06-10T00:51:58;94729.19;;;14.72;98.14
68179;BME280;69812;42.632;23.440;2023-06-10T00:54:24;94717.53;;;14.76;97.44
68179;BME280;69812;42.632;23.440;2023-06-10T00:56:51;94716.56;;;14.86;96.75
68179;BME280;69812;42.632;23.440;2023-06-10T00:59:19;94717.50;;;14.85;96.12
68179;BME280;69812;42.632;23.440;2023-06-10T01:01:47;94728.47;;;14.87;96.19
68179;BME280;69812;42.632;23.440;2023-06-10T01:04:13;94723.13;;;14.96;95.62
68179;BME280;69812;42.632;23.440;2023-06-10T01:09:24;94715.59;;;14.78;95.93
68179;BME280;69812;42.632;23.440;2023-06-10T01:14:22;94725.56;;;14.90;96.62
68179;BME280;69812;42.632;23.440;2023-06-10T01:16:48;94715.72;;;14.85;96.68
68179;BME280;69812;42.632;23.440;2023-06-10T01:19:14;94719.41;;;14.91;96.70
68179;BME280;69812;42.632;23.440;2023-06-10T01:21:43;94716.88;;;14.83;96.92
68179;BME280;69812;42.632;23.440;2023-06-10T01:24:14;94724.56;;;14.99;96.65
68179;BME280;69812;42.632;23.440;2023-06-10T01:26:43;94723.16;;;14.88;96.58
68179;BME280;69812;42.632;23.440;2023-06-10T01:32:03;94721.53;;;14.87;97.09
68179;BME280;69812;42.632;23.440;2023-06-10T01:34:32;94729.09;;;14.97;97.49
68179;BME280;69812;42.632;23.440;2023-06-10T01:36:58;94721.16;;;14.98;97.37
68179;BME280;69812;42.632;23.440;2023-06-10T01:39:24;94726.47;;;15.05;97.34
68179;BME280;69812;42.632;23.440;2023-06-10T01:41:52;94726.47;;;15.05;97.28
68179;BME280;69812;42.632;23.440;2023-06-10T01:44:22;94720.19;;;14.99;97.72
68179;BME280;69812;42.632;23.440;2023-06-10T01:46:48;94724.03;;;15.04;97.80
68179;BME280;69812;42.632;23.440;2023-06-10T01:49:13;94724.19;;;15.02;97.85
68179;BME280;69812;42.632;23.440;2023-06-10T01:51:39;94727.41;;;15.04;97.88
68179;BME280;69812;42.632;23.440;2023-06-10T01:54:07;94712.72;;;15.05;97.94
68179;BME280;69812;42.632;23.440;2023-06-10T01:56:33;94715.38;;;14.96;97.94
68179;BME280;69812;42.632;23.440;2023-06-10T01:58:58;94706.09;;;15.02;97.96
68179;BME280;69812;42.632;23.440;2023-06-10T02:01:27;94720.59;;;15.11;97.37
68179;BME280;69812;42.632;23.440;2023-06-10T02:03:53;94715.66;;;15.02;97.04
68179;BME280;69812;42.632;23.440;2023-06-10T02:06:21;94704.31;;;15.03;97.04
68179;BME280;69812;42.632;23.440;2023-06-10T02:08:46;94710.75;;;15.07;96.82
68179;BME280;69812;42.632;23.440;2023-06-10T02:11:11;94709.56;;;14.94;97.12
68179;BME280;69812;42.632;23.440;2023-06-10T02:13:38;94712.06;;;15.03;96.95
68179;BME280;69812;42.632;23.440;2023-06-10T02:16:03;94702.69;;;15.10;96.26
68179;BME280;69812;42.632;23.440;2023-06-10T02:18:31;94709.91;;;15.14;96.00
68179;BME280;69812;42.632;23.440;2023-06-10T02:20:57;94713.03;;;15.10;96.16
68179;BME280;69812;42.632;23.440;2023-06-10T02:23:22;94701.94;;;15.01;96.23
68179;BME280;69812;42.632;23.440;2023-06-10T02:25:48;94694.81;;;15.03;96.34
68179;BME280;69812;42.632;23.440;2023-06-10T02:28:13;94690.75;;;15.00;96.00
68179;BME280;69812;42.632;23.440;2023-06-10T02:30:42;94694.97;;;15.02;95.95
68179;BME280;69812;42.632;23.440;2023-06-10T02:33:08;94689.44;;;15.05;95.92
68179;BME280;69812;42.632;23.440;2023-06-10T02:35:39;94691.06;;;15.06;96.10
68179;BME280;69812;42.632;23.440;2023-06-10T02:38:04;94686.75;;;14.98;96.19
68179;BME280;69812;42.632;23.440;2023-06-10T02:40:30;94686.94;;;14.96;96.09
68179;BME280;69812;42.632;23.440;2023-06-10T02:42:56;94685.00;;;14.98;96.12
68179;BME280;69812;42.632;23.440;2023-06-10T02:45:22;94690.31;;;14.97;96.24
68179;BME280;69812;42.632;23.440;2023-06-10T02:47:47;94688.81;;;15.03;95.82
68179;BME280;69812;42.632;23.440;2023-06-10T02:50:13;94686.94;;;14.96;95.92
68179;BME280;69812;42.632;23.440;2023-06-10T02:52:38;94687.06;;;15.03;96.24
68179;BME280;69812;42.632;23.440;2023-06-10T02:55:04;94680.34;;;15.17;95.52
68179;BME280;69812;42.632;23.440;2023-06-10T02:57:30;94670.97;;;15.16;94.92
68179;BME280;69812;42.632;23.440;2023-06-10T02:59:58;94667.66;;;15.07;94.47
68179;BME280;69812;42.632;23.440;2023-06-10T03:02:24;94679.69;;;15.15;94.78
68179;BME280;69812;42.632;23.440;2023-06-10T03:04:54;94677.38;;;15.20;95.22
68179;BME280;69812;42.632;23.440;2023-06-10T03:07:20;94669.53;;;15.13;95.26
68179;BME280;69812;42.632;23.440;2023-06-10T03:09:46;94676.91;;;15.25;95.50
68179;BME280;69812;42.632;23.440;2023-06-10T03:12:11;94682.72;;;15.41;95.42
68179;BME280;69812;42.632;23.440;2023-06-10T03:14:36;94679.34;;;15.41;94.31
68179;BME280;69812;42.632;23.440;2023-06-10T03:17:04;94680.66;;;15.60;93.36
68179;BME280;69812;42.632;23.440;2023-06-10T03:19:30;94684.13;;;15.67;91.50
68179;BME280;69812;42.632;23.440;2023-06-10T03:22:12;94683.50;;;15.65;91.03
68179;BME280;69812;42.632;23.440;2023-06-10T03:24:38;94699.47;;;15.92;90.27
68179;BME280;69812;42.632;23.440;2023-06-10T03:27:08;94691.78;;;15.84;90.04
68179;BME280;69812;42.632;23.440;2023-06-10T03:29:35;94704.25;;;15.80;90.24
68179;BME280;69812;42.632;23.440;2023-06-10T03:32:01;94702.25;;;15.67;90.13
68179;BME280;69812;42.632;23.440;2023-06-10T03:34:26;94703.94;;;15.60;90.20
68179;BME280;69812;42.632;23.440;2023-06-10T03:36:52;94704.97;;;15.51;90.51
68179;BME280;69812;42.632;23.440;2023-06-10T03:39:17;94701.53;;;15.35;90.89
68179;BME280;69812;42.632;23.440;2023-06-10T03:41:42;94708.09;;;15.23;91.49
68179;BME280;69812;42.632;23.440;2023-06-10T03:44:08;94706.00;;;14.95;92.96
68179;BME280;69812;42.632;23.440;2023-06-10T03:46:33;94705.09;;;14.80;93.83
68179;BME280;69812;42.632;23.440;2023-06-10T04:07:55;94717.53;;;14.76;98.53
68179;BME280;69812;42.632;23.440;2023-06-10T04:10:22;94727.34;;;14.89;97.73
68179;BME280;69812;42.632;23.440;2023-06-10T04:12:47;94723.59;;;14.92;97.99
68179;BME280;69812;42.632;23.440;2023-06-10T04:15:12;94728.41;;;15.03;98.10
68179;BME280;69812;42.632;23.440;2023-06-10T04:17:38;94724.34;;;15.00;96.69
68179;BME280;69812;42.632;23.440;2023-06-10T04:20:04;94726.66;;;14.95;96.75
68179;BME280;69812;42.632;23.440;2023-06-10T04:22:32;94736.84;;;14.97;97.23
68179;BME280;69812;42.632;23.440;2023-06-10T04:25:09;94740.69;;;15.01;97.89
68179;BME280;69812;42.632;23.440;2023-06-10T04:27:35;94728.53;;;15.10;97.75
68179;BME280;69812;42.632;23.440;2023-06-10T04:30:03;94731.75;;;15.12;97.55
68179;BME280;69812;42.632;23.440;2023-06-10T04:32:29;94730.28;;;15.09;98.70
68179;BME280;69812;42.632;23.440;2023-06-10T04:34:54;94735.72;;;15.23;99.71
68179;BME280;69812;42.632;23.440;2023-06-10T04:37:29;94736.41;;;15.39;98.97
68179;BME280;69812;42.632;23.440;2023-06-10T04:39:57;94725.66;;;15.51;98.10
68179;BME280;69812;42.632;23.440;2023-06-10T04:42:22;94728.16;;;15.59;98.40
68179;BME280;69812;42.632;23.440;2023-06-10T04:44:50;94723.41;;;15.71;97.48
68179;BME280;69812;42.632;23.440;2023-06-10T04:47:15;94730.13;;;15.80;97.04
68179;BME280;69812;42.632;23.440;2023-06-10T04:49:42;94732.81;;;15.87;96.46
68179;BME280;69812;42.632;23.440;2023-06-10T04:52:07;94723.28;;;15.87;96.40
68179;BME280;69812;42.632;23.440;2023-06-10T04:54:33;94729.47;;;16.01;94.32
68179;BME280;69812;42.632;23.440;2023-06-10T04:56:58;94725.81;;;16.10;93.16
68179;BME280;69812;42.632;23.440;2023-06-10T04:59:25;94724.31;;;16.16;93.53
68179;BME280;69812;42.632;23.440;2023-06-10T05:01:50;94729.59;;;16.22;92.68
68179;BME280;69812;42.632;23.440;2023-06-10T05:04:16;94728.59;;;16.53;92.22
68179;BME280;69812;42.632;23.440;2023-06-10T05:06:41;94727.59;;;16.69;88.62
68179;BME280;69812;42.632;23.440;2023-06-10T05:09:13;94726.16;;;16.67;89.14
68179;BME280;69812;42.632;23.440;2023-06-10T05:11:38;94724.38;;;16.82;90.25
68179;BME280;69812;42.632;23.440;2023-06-10T05:14:04;94719.38;;;17.17;87.24
68179;BME280;69812;42.632;23.440;2023-06-10T05:16:30;94716.97;;;17.37;86.89
68179;BME280;69812;42.632;23.440;2023-06-10T05:18:55;94711.50;;;17.68;87.59
68179;BME280;69812;42.632;23.440;2023-06-10T05:21:21;94709.19;;;18.08;84.44
68179;BME280;69812;42.632;23.440;2023-06-10T05:23:46;94715.34;;;18.29;83.02
68179;BME280;69812;42.632;23.440;2023-06-10T05:26:11;94709.13;;;18.71;81.41
68179;BME280;69812;42.632;23.440;2023-06-10T05:28:37;94707.72;;;19.17;80.89
68179;BME280;69812;42.632;23.440;2023-06-10T05:31:04;94713.97;;;19.56;78.51
68179;BME280;69812;42.632;23.440;2023-06-10T05:33:30;94722.47;;;19.91;77.55
68179;BME280;69812;42.632;23.440;2023-06-10T05:35:55;94719.00;;;20.24;73.44
68179;BME280;69812;42.632;23.440;2023-06-10T05:38:21;94720.34;;;20.53;71.15
68179;BME280;69812;42.632;23.440;2023-06-10T05:40:48;94714.66;;;20.83;70.02
68179;BME280;69812;42.632;23.440;2023-06-10T05:43:14;94709.28;;;21.16;68.42
68179;BME280;69812;42.632;23.440;2023-06-10T05:45:42;94723.03;;;21.43;65.52
68179;BME280;69812;42.632;23.440;2023-06-10T05:48:10;94721.78;;;21.46;66.40
68179;BME280;69812;42.632;23.440;2023-06-10T05:50:35;94717.94;;;21.48;65.22
68179;BME280;69812;42.632;23.440;2023-06-10T05:53:04;94718.53;;;21.50;67.39
68179;BME280;69812;42.632;23.440;2023-06-10T05:55:32;94719.88;;;20.83;65.30
68179;BME280;69812;42.632;23.440;2023-06-10T05:58:00;94725.09;;;21.28;67.58
68179;BME280;69812;42.632;23.440;2023-06-10T06:00:26;94733.97;;;21.59;66.12
68179;BME280;69812;42.632;23.440;2023-06-10T06:02:54;94723.91;;;21.87;65.22
68179;BME280;69812;42.632;23.440;2023-06-10T06:05:22;94733.75;;;21.60;64.02
68179;BME280;69812;42.632;23.440;2023-06-10T06:07:47;94732.09;;;22.16;65.05
68179;BME280;69812;42.632;23.440;2023-06-10T06:10:13;94723.47;;;22.59;62.35
68179;BME280;69812;42.632;23.440;2023-06-10T06:12:38;94729.00;;;23.06;61.52
68179;BME280;69812;42.632;23.440;2023-06-10T06:15:04;94731.97;;;23.10;59.13
68179;BME280;69812;42.632;23.440;2023-06-10T06:17:29;94725.66;;;22.62;59.27
68179;BME280;69812;42.632;23.440;2023-06-10T06:19:55;94727.53;;;22.55;62.67
68179;BME280;69812;42.632;23.440;2023-06-10T06:22:20;94734.56;;;22.36;61.76
68179;BME280;69812;42.632;23.440;2023-06-10T06:24:47;94727.84;;;22.47;62.32
68179;BME280;69812;42.632;23.440;2023-06-10T06:27:12;94731.31;;;22.59;62.08
68179;BME280;69812;42.632;23.440;2023-06-10T06:29:38;94726.84;;;22.23;61.83
68179;BME280;69812;42.632;23.440;2023-06-10T06:32:03;94728.91;;;22.14;61.82
68179;BME280;69812;42.632;23.440;2023-06-10T06:34:29;94728.16;;;22.07;60.79
68179;BME280;69812;42.632;23.440;2023-06-10T06:36:54;94717.34;;;22.28;61.20
68179;BME280;69812;42.632;23.440;2023-06-10T06:39:20;94715.34;;;22.49;60.18
68179;BME280;69812;42.632;23.440;2023-06-10T06:41:45;94710.91;;;22.49;62.08
68179;BME280;69812;42.632;23.440;2023-06-10T06:44:10;94708.81;;;22.58;60.14
68179;BME280;69812;42.632;23.440;2023-06-10T06:46:36;94719.28;;;23.25;60.54
68179;BME280;69812;42.632;23.440;2023-06-10T06:49:01;94720.56;;;23.76;57.91
68179;BME280;69812;42.632;23.440;2023-06-10T06:51:26;94718.09;;;24.29;57.07
68179;BME280;69812;42.632;23.440;2023-06-10T06:53:52;94706.84;;;24.40;57.10
68179;BME280;69812;42.632;23.440;2023-06-10T06:56:19;94701.53;;;24.75;54.34
68179;BME280;69812;42.632;23.440;2023-06-10T06:58:46;94724.81;;;24.72;54.18
68179;BME280;69812;42.632;23.440;2023-06-10T07:01:11;94728.44;;;24.94;54.54
68179;BME280;69812;42.632;23.440;2023-06-10T07:03:37;94719.94;;;25.04;54.14
68179;BME280;69812;42.632;23.440;2023-06-10T07:06:02;94717.09;;;25.06;53.13
68179;BME280;69812;42.632;23.440;2023-06-10T07:08:28;94706.16;;;25.37;52.65
68179;BME280;69812;42.632;23.440;2023-06-10T07:10:54;94706.50;;;25.58;52.19
68179;BME280;69812;42.632;23.440;2023-06-10T07:13:19;94703.09;;;26.08;51.33
68179;BME280;69812;42.632;23.440;2023-06-10T07:15:45;94702.31;;;26.86;49.78
68179;BME280;69812;42.632;23.440;2023-06-10T07:18:10;94702.25;;;27.24;48.85
68179;BME280;69812;42.632;23.440;2023-06-10T07:20:36;94707.22;;;27.48;47.11
68179;BME280;69812;42.632;23.440;2023-06-10T07:23:04;94706.44;;;26.76;49.08
68179;BME280;69812;42.632;23.440;2023-06-10T07:25:29;94700.25;;;26.88;49.73
68179;BME280;69812;42.632;23.440;2023-06-10T07:27:54;94698.09;;;27.07;49.50
68179;BME280;69812;42.632;23.440;2023-06-10T07:30:20;94703.38;;;27.88;46.94
68179;BME280;69812;42.632;23.440;2023-06-10T07:32:45;94701.00;;;29.50;43.26
68179;BME280;69812;42.632;23.440;2023-06-10T07:35:11;94687.56;;;30.99;39.78
68179;BME280;69812;42.632;23.440;2023-06-10T07:37:36;94698.19;;;33.38;37.26
68179;BME280;69812;42.632;23.440;2023-06-10T07:40:02;94691.75;;;34.56;31.79
68179;BME280;69812;42.632;23.440;2023-06-10T07:42:28;94686.56;;;37.30;29.00
68179;BME280;69812;42.632;23.440;2023-06-10T07:44:53;94683.91;;;34.65;30.73
68179;BME280;69812;42.632;23.440;2023-06-10T07:47:19;94684.50;;;37.10;28.31
68179;BME280;69812;42.632;23.440;2023-06-10T07:49:44;94687.63;;;43.38;21.13
68179;BME280;69812;42.632;23.440;2023-06-10T07:52:10;94682.75;;;42.77;20.59
68179;BME280;69812;42.632;23.440;2023-06-10T07:54:37;94676.00;;;41.79;21.79
68179;BME280;69812;42.632;23.440;2023-06-10T07:57:03;94678.06;;;37.98;26.01
68179;BME280;69812;42.632;23.440;2023-06-10T07:59:28;94675.69;;;33.49;32.18
68179;BME280;69812;42.632;23.440;2023-06-10T08:01:54;94676.22;;;31.77;35.62
68179;BME280;69812;42.632;23.440;2023-06-10T08:04:19;94673.72;;;30.42;38.23
68179;BME280;69812;42.632;23.440;2023-06-10T08:06:45;94680.00;;;33.45;32.92
68179;BME280;69812;42.632;23.440;2023-06-10T08:09:10;94675.19;;;33.47;33.46
68179;BME280;69812;42.632;23.440;2023-06-10T08:11:35;94672.19;;;31.06;35.54
68179;BME280;69812;42.632;23.440;2023-06-10T08:14:01;94672.69;;;30.17;37.80
68179;BME280;69812;42.632;23.440;2023-06-10T08:16:28;94672.94;;;30.41;36.44
68179;BME280;69812;42.632;23.440;2023-06-10T08:18:54;94675.06;;;34.23;30.13
68179;BME280;69812;42.632;23.440;2023-06-10T08:21:27;94678.19;;;35.94;27.65
68179;BME280;69812;42.632;23.440;2023-06-10T08:23:53;94668.56;;;34.43;28.68
68179;BME280;69812;42.632;23.440;2023-06-10T08:26:19;94668.25;;;31.38;34.04
68179;BME280;69812;42.632;23.440;2023-06-10T08:28:45;94661.75;;;32.52;31.78
68179;BME280;69812;42.632;23.440;2023-06-10T08:31:10;94649.13;;;39.07;23.99
68179;BME280;69812;42.632;23.440;2023-06-10T08:33:36;94658.06;;;44.27;18.74
68179;BME280;69812;42.632;23.440;2023-06-10T08:36:01;94657.63;;;46.29;16.36
68179;BME280;69812;42.632;23.440;2023-06-10T08:38:26;94650.53;;;48.38;14.63
68179;BME280;69812;42.632;23.440;2023-06-10T08:40:56;94643.50;;;48.90;13.42
68179;BME280;69812;42.632;23.440;2023-06-10T08:43:31;94644.66;;;47.08;14.81
68179;BME280;69812;42.632;23.440;2023-06-10T08:46:00;94646.34;;;46.20;15.51
68179;BME280;69812;42.632;23.440;2023-06-10T08:48:46;94644.59;;;39.19;20.39
68179;BME280;69812;42.632;23.440;2023-06-10T08:51:16;94625.28;;;36.68;24.76
68179;BME280;69812;42.632;23.440;2023-06-10T08:53:50;94629.38;;;34.15;27.63
68179;BME280;69812;42.632;23.440;2023-06-10T08:56:17;94625.19;;;32.20;30.76
68179;BME280;69812;42.632;23.440;2023-06-10T08:58:43;94625.13;;;29.81;33.23
68179;BME280;69812;42.632;23.440;2023-06-10T09:01:08;94619.94;;;28.67;35.47
68179;BME280;69812;42.632;23.440;2023-06-10T09:03:37;94617.19;;;27.99;36.76
68179;BME280;69812;42.632;23.440;2023-06-10T09:06:04;94619.16;;;26.46;42.63
68179;BME280;69812;42.632;23.440;2023-06-10T09:08:30;94618.13;;;25.06;39.03
68179;BME280;69812;42.632;23.440;2023-06-10T09:10:56;94615.19;;;24.74;40.79
68179;BME280;69812;42.632;23.440;2023-06-10T09:13:22;94608.06;;;24.57;40.16
68179;BME280;69812;42.632;23.440;2023-06-10T09:15:48;94616.41;;;24.83;40.45
68179;BME280;69812;42.632;23.440;2023-06-10T09:18:14;94614.16;;;24.75;39.78
68179;BME280;69812;42.632;23.440;2023-06-10T09:20:42;94608.41;;;24.90;39.59
68179;BME280;69812;42.632;23.440;2023-06-10T09:23:08;94607.69;;;25.23;39.11
68179;BME280;69812;42.632;23.440;2023-06-10T09:25:35;94612.84;;;25.35;38.31
68179;BME280;69812;42.632;23.440;2023-06-10T09:28:02;94604.13;;;25.46;38.65
68179;BME280;69812;42.632;23.440;2023-06-10T09:30:32;94600.50;;;26.03;37.66
68179;BME280;69812;42.632;23.440;2023-06-10T09:33:00;94596.47;;;26.17;37.55
68179;BME280;69812;42.632;23.440;2023-06-10T09:35:28;94606.50;;;26.42;36.18
68179;BME280;69812;42.632;23.440;2023-06-10T09:37:55;94600.53;;;26.96;37.32
68179;BME280;69812;42.632;23.440;2023-06-10T09:40:21;94600.88;;;27.05;33.75
68179;BME280;69812;42.632;23.440;2023-06-10T09:42:52;94598.75;;;26.53;35.35
68179;BME280;69812;42.632;23.440;2023-06-10T09:45:20;94603.53;;;26.56;33.49
68179;BME280;69812;42.632;23.440;2023-06-10T09:47:46;94589.22;;;26.96;34.96
68179;BME280;69812;42.632;23.440;2023-06-10T09:50:12;94595.81;;;27.25;36.39
68179;BME280;69812;42.632;23.440;2023-06-10T09:52:38;94591.09;;;27.00;34.04
68179;BME280;69812;42.632;23.440;2023-06-10T09:55:04;94588.72;;;27.26;34.90
68179;BME280;69812;42.632;23.440;2023-06-10T09:57:33;94593.63;;;26.90;37.16
68179;BME280;69812;42.632;23.440;2023-06-10T09:59:59;94590.19;;;26.62;37.43
68179;BME280;69812;42.632;23.440;2023-06-10T10:02:24;94588.34;;;25.29;39.71
68179;BME280;69812;42.632;23.440;2023-06-10T10:04:50;94587.63;;;24.88;40.59
68179;BME280;69812;42.632;23.440;2023-06-10T10:07:15;94583.97;;;24.89;38.94
68179;BME280;69812;42.632;23.440;2023-06-10T10:09:42;94581.41;;;24.77;38.95
68179;BME280;69812;42.632;23.440;2023-06-10T10:14:33;94567.72;;;24.75;40.78
68179;BME280;69812;42.632;23.440;2023-06-10T10:17:00;94568.06;;;24.79;37.65
68179;BME280;69812;42.632;23.440;2023-06-10T10:19:31;94560.63;;;24.76;37.68
68179;BME280;69812;42.632;23.440;2023-06-10T10:22:07;94569.84;;;24.78;38.62
68179;BME280;69812;42.632;23.440;2023-06-10T10:24:38;94554.41;;;25.11;39.42
68179;BME280;69812;42.632;23.440;2023-06-10T10:27:13;94565.72;;;25.28;37.57
68179;BME280;69812;42.632;23.440;2023-06-10T10:29:46;94558.88;;;25.10;37.78
68179;BME280;69812;42.632;23.440;2023-06-10T10:32:13;94557.56;;;24.96;39.92
68179;BME280;69812;42.632;23.440;2023-06-10T10:37:27;94551.84;;;25.83;38.74
68179;BME280;69812;42.632;23.440;2023-06-10T10:39:54;94542.19;;;25.89;37.73
68179;BME280;69812;42.632;23.440;2023-06-10T10:42:20;94553.88;;;25.59;38.11
68179;BME280;69812;42.632;23.440;2023-06-10T10:44:53;94543.81;;;25.73;36.94
68179;BME280;69812;42.632;23.440;2023-06-10T10:47:21;94543.75;;;25.51;37.09
68179;BME280;69812;42.632;23.440;2023-06-10T10:49:48;94536.84;;;25.45;37.39
68179;BME280;69812;42.632;23.440;2023-06-10T10:52:15;94541.31;;;25.45;37.38
68179;BME280;69812;42.632;23.440;2023-06-10T10:54:45;94541.34;;;25.67;37.67
68179;BME280;69812;42.632;23.440;2023-06-10T10:57:23;94540.13;;;25.91;38.66
68179;BME280;69812;42.632;23.440;2023-06-10T11:02:41;94532.22;;;25.52;36.50
68179;BME280;69812;42.632;23.440;2023-06-10T11:05:39;94530.72;;;25.95;35.62
68179;BME280;69812;42.632;23.440;2023-06-10T11:08:07;94530.81;;;25.45;36.60
68179;BME280;69812;42.632;23.440;2023-06-10T11:10:37;94521.63;;;25.47;35.88
68179;BME280;69812;42.632;23.440;2023-06-10T11:13:12;94520.50;;;25.60;36.88
68179;BME280;69812;42.632;23.440;2023-06-10T11:15:43;94509.75;;;26.00;38.07
68179;BME280;69812;42.632;23.440;2023-06-10T11:26:11;94496.94;;;27.50;35.60
68179;BME280;69812;42.632;23.440;2023-06-10T11:29:03;94499.03;;;26.78;33.96
68179;BME280;69812;42.632;23.440;2023-06-10T11:31:33;94493.00;;;26.56;34.76
68179;BME280;69812;42.632;23.440;2023-06-10T11:34:00;94483.00;;;26.31;35.98
68179;BME280;69812;42.632;23.440;2023-06-10T11:36:30;94490.84;;;26.26;35.14
68179;BME280;69812;42.632;23.440;2023-06-10T11:38:58;94481.88;;;26.49;35.01
68179;BME280;69812;42.632;23.440;2023-06-10T11:41:25;94482.88;;;27.02;35.13
68179;BME280;69812;42.632;23.440;2023-06-10T11:43:52;94484.56;;;27.13;34.08
68179;BME280;69812;42.632;23.440;2023-06-10T11:46:18;94481.72;;;27.20;34.87
68179;BME280;69812;42.632;23.440;2023-06-10T11:48:53;94481.56;;;27.84;35.02
68179;BME280;69812;42.632;23.440;2023-06-10T11:51:19;94475.22;;;28.49;33.10
68179;BME280;69812;42.632;23.440;2023-06-10T11:53:48;94482.38;;;28.99;32.82
68179;BME280;69812;42.632;23.440;2023-06-10T11:56:21;94472.25;;;28.24;31.57
68179;BME280;69812;42.632;23.440;2023-06-10T11:58:52;94476.47;;;28.41;32.70
68179;BME280;69812;42.632;23.440;2023-06-10T12:01:23;94467.50;;;28.26;32.17
68179;BME280;69812;42.632;23.440;2023-06-10T12:03:58;94470.59;;;28.08;32.43
68179;BME280;69812;42.632;23.440;2023-06-10T12:06:24;94474.00;;;28.03;33.31
68179;BME280;69812;42.632;23.440;2023-06-10T12:08:50;94468.28;;;28.27;31.66
68179;BME280;69812;42.632;23.440;2023-06-10T12:11:15;94459.66;;;28.57;31.77
68179;BME280;69812;42.632;23.440;2023-06-10T12:13:50;94466.13;;;27.51;33.20
68179;BME280;69812;42.632;23.440;2023-06-10T12:16:16;94466.25;;;27.29;34.36
68179;BME280;69812;42.632;23.440;2023-06-10T12:18:43;94468.28;;;28.27;33.68
68179;BME280;69812;42.632;23.440;2023-06-10T12:21:24;94457.03;;;29.08;30.87
68179;BME280;69812;42.632;23.440;2023-06-10T12:24:02;94455.50;;;30.03;30.82
68179;BME280;69812;42.632;23.440;2023-06-10T12:26:42;94456.75;;;30.66;29.79
68179;BME280;69812;42.632;23.440;2023-06-10T12:29:21;94451.72;;;31.04;26.86
68179;BME280;69812;42.632;23.440;2023-06-10T12:31:56;94459.13;;;31.07;27.08
68179;BME280;69812;42.632;23.440;2023-06-10T12:34:37;94452.34;;;31.54;26.54
68179;BME280;69812;42.632;23.440;2023-06-10T12:37:13;94454.41;;;32.05;26.32
68179;BME280;69812;42.632;23.440;2023-06-10T12:39:39;94438.28;;;32.40;25.77
68179;BME280;69812;42.632;23.440;2023-06-10T12:42:09;94439.16;;;31.49;27.10
68179;BME280;69812;42.632;23.440;2023-06-10T12:44:39;94442.53;;;31.25;27.21
68179;BME280;69812;42.632;23.440;2023-06-10T12:47:08;94440.00;;;31.39;26.78
68179;BME280;69812;42.632;23.440;2023-06-10T12:49:35;94426.16;;;30.89;27.98
68179;BME280;69812;42.632;23.440;2023-06-10T12:52:01;94422.56;;;31.33;28.60
68179;BME280;69812;42.632;23.440;2023-06-10T12:54:26;94431.75;;;29.88;29.21
68179;BME280;69812;42.632;23.440;2023-06-10T12:56:51;94427.28;;;29.88;29.72
68179;BME280;69812;42.632;23.440;2023-06-10T12:59:18;94427.75;;;28.84;31.60
68179;BME280;69812;42.632;23.440;2023-06-10T13:01:44;94438.28;;;28.59;32.61
68179;BME280;69812;42.632;23.440;2023-06-10T13:04:10;94436.59;;;28.12;34.60
68179;BME280;69812;42.632;23.440;2023-06-10T13:06:35;94441.03;;;27.96;34.18
68179;BME280;69812;42.632;23.440;2023-06-10T13:09:05;94443.84;;;27.79;35.16
68179;BME280;69812;42.632;23.440;2023-06-10T13:11:31;94440.69;;;27.82;35.31
68179;BME280;69812;42.632;23.440;2023-06-10T13:13:57;94438.78;;;27.67;35.64
68179;BME280;69812;42.632;23.440;2023-06-10T13:16:22;94444.00;;;28.25;34.48
68179;BME280;69812;42.632;23.440;2023-06-10T13:18:50;94449.13;;;28.83;33.72
68179;BME280;69812;42.632;23.440;2023-06-10T13:21:16;94439.09;;;28.85;34.91
68179;BME280;69812;42.632;23.440;2023-06-10T13:23:44;94441.19;;;29.19;33.56
68179;BME280;69812;42.632;23.440;2023-06-10T13:26:11;94441.38;;;29.58;33.03
68179;BME280;69812;42.632;23.440;2023-06-10T13:28:36;94450.00;;;29.89;32.78
68179;BME280;69812;42.632;23.440;2023-06-10T13:31:01;94445.69;;;29.28;33.82
68179;BME280;69812;42.632;23.440;2023-06-10T13:33:27;94448.06;;;28.89;34.82